createdAt,value
2018-07-05T00:00:26.016Z,56.3
2018-07-05T00:01:15.256Z,56.3
2018-07-05T00:02:06.128Z,56.3
2018-07-05T00:02:55.910Z,56.3
2018-07-05T00:03:45.106Z,56.3
2018-07-05T00:04:35.785Z,56.3
2018-07-05T00:05:25.264Z,56.3
2018-07-05T00:06:16.130Z,56.3
2018-07-05T00:07:06.545Z,56.3
2018-07-05T00:07:55.738Z,56.3
2018-07-05T00:08:45.241Z,56.3
2018-07-05T00:09:35.844Z,56.3
2018-07-05T00:10:26.652Z,56.3
2018-07-05T00:11:16.608Z,56.3
2018-07-05T00:12:06.628Z,56.2
2018-07-05T00:12:56.983Z,56.2
2018-07-05T00:13:46.203Z,56.2
2018-07-05T00:14:35.992Z,56.2
2018-07-05T00:15:26.877Z,56.2
2018-07-05T00:16:17.236Z,56.2
2018-07-05T00:17:06.834Z,56.2
2018-07-05T00:17:57.115Z,56.2
2018-07-05T00:18:46.561Z,56.2
2018-07-05T00:19:37.514Z,56.2
2018-07-05T00:20:27.257Z,56.2
2018-07-05T00:21:17.054Z,56.1
2018-07-05T00:22:07.417Z,56.1
2018-07-05T00:22:57.777Z,56.1
2018-07-05T00:23:46.938Z,56.1
2018-07-05T00:24:37.291Z,56.1
2018-07-05T00:25:27.364Z,56.1
2018-07-05T00:26:17.991Z,56.1
2018-07-05T00:27:07.509Z,56.1
2018-07-05T00:27:58.111Z,56.1
2018-07-05T00:28:48.179Z,56.1
2018-07-05T00:29:38.263Z,56.1
2018-07-05T00:30:28.067Z,56.1
2018-07-05T00:31:18.101Z,56.1
2018-07-05T00:32:07.881Z,56.1
2018-07-05T00:32:58.234Z,56.1
2018-07-05T00:33:47.436Z,56.1
2018-07-05T00:34:38.596Z,56.1
2018-07-05T00:35:28.396Z,56.1
2018-07-05T00:36:18.729Z,56.1
2018-07-05T00:37:08.573Z,56
2018-07-05T00:37:58.845Z,56.1
2018-07-05T00:38:48.876Z,56
2018-07-05T00:39:38.683Z,56
2018-07-05T00:40:28.503Z,56
2018-07-05T00:41:18.548Z,56
2018-07-05T00:42:08.867Z,56
2018-07-05T00:42:59.241Z,56
2018-07-05T00:43:48.738Z,56
2018-07-05T00:44:39.092Z,56
2018-07-05T00:45:29.206Z,56
2018-07-05T00:46:18.923Z,55.9
2018-07-05T00:47:09.597Z,56
2018-07-05T00:47:59.610Z,55.9
2018-07-05T00:48:48.912Z,55.9
2018-07-05T00:49:39.519Z,55.9
2018-07-05T00:50:29.527Z,55.9
2018-07-05T00:51:19.857Z,55.9
2018-07-05T00:52:09.662Z,55.9
2018-07-05T00:52:59.727Z,55.9
2018-07-05T00:53:49.809Z,55.9
2018-07-05T00:54:39.897Z,55.9
2018-07-05T00:55:29.719Z,55.9
2018-07-05T00:56:20.003Z,55.9
2018-07-05T00:57:10.067Z,55.9
2018-07-05T00:58:00.429Z,55.9
2018-07-05T00:58:50.186Z,55.9
2018-07-05T00:59:40.529Z,55.9
2018-07-05T01:00:30.086Z,55.9
2018-07-05T01:01:19.858Z,55.9
2018-07-05T01:02:10.732Z,55.9
2018-07-05T01:03:00.774Z,55.9
2018-07-05T01:03:50.845Z,55.8
2018-07-05T01:04:40.894Z,55.8
2018-07-05T01:05:30.456Z,55.8
2018-07-05T01:06:20.522Z,55.8
2018-07-05T01:07:10.842Z,55.8
2018-07-05T01:08:01.209Z,55.8
2018-07-05T01:08:50.391Z,55.8
2018-07-05T01:09:41.334Z,55.8
2018-07-05T01:10:31.150Z,55.8
2018-07-05T01:11:20.872Z,55.8
2018-07-05T01:12:11.492Z,55.8
2018-07-05T01:13:01.600Z,55.8
2018-07-05T01:13:51.338Z,55.8
2018-07-05T01:14:41.159Z,55.8
2018-07-05T01:15:31.519Z,55.8
2018-07-05T01:16:21.534Z,55.8
2018-07-05T01:17:11.645Z,55.8
2018-07-05T01:18:01.176Z,55.8
2018-07-05T01:18:51.499Z,55.7
2018-07-05T01:19:41.553Z,55.8
2018-07-05T01:20:31.589Z,55.8
2018-07-05T01:21:22.275Z,55.7
2018-07-05T01:22:12.003Z,55.7
2018-07-05T01:23:02.339Z,55.8
2018-07-05T01:23:51.860Z,55.7
2018-07-05T01:24:42.463Z,55.7
2018-07-05T01:25:32.043Z,55.7
2018-07-05T01:26:22.620Z,55.7
2018-07-05T01:27:12.102Z,55.7
2018-07-05T01:28:02.501Z,55.7
2018-07-05T01:28:52.815Z,55.6
2018-07-05T01:29:42.866Z,55.6
2018-07-05T01:30:32.119Z,55.6
2018-07-05T01:31:22.735Z,55.6
2018-07-05T01:32:13.051Z,55.6
2018-07-05T01:33:02.861Z,55.6
2018-07-05T01:33:52.631Z,55.6
2018-07-05T01:34:42.718Z,55.6
2018-07-05T01:35:33.034Z,55.6
2018-07-05T01:36:23.180Z,55.6
2018-07-05T01:37:12.624Z,55.6
2018-07-05T01:38:03.536Z,55.6
2018-07-05T01:38:53.306Z,55.6
2018-07-05T01:39:43.364Z,55.6
2018-07-05T01:40:33.715Z,55.6
2018-07-05T01:41:23.885Z,55.6
2018-07-05T01:42:13.562Z,55.6
2018-07-05T01:43:03.918Z,55.6
2018-07-05T01:43:53.722Z,55.6
2018-07-05T01:44:43.498Z,55.6
2018-07-05T01:45:34.165Z,55.5
2018-07-05T01:46:24.212Z,55.6
2018-07-05T01:47:14.203Z,55.5
2018-07-05T01:48:04.341Z,55.5
2018-07-05T01:48:54.334Z,55.5
2018-07-05T01:49:44.131Z,55.5
2018-07-05T01:50:34.504Z,55.5
2018-07-05T01:51:24.002Z,55.5
2018-07-05T01:52:14.611Z,55.5
2018-07-05T01:53:04.409Z,55.5
2018-07-05T01:53:54.188Z,55.5
2018-07-05T01:54:44.550Z,55.4
2018-07-05T01:55:34.890Z,55.5
2018-07-05T01:56:24.939Z,55.4
2018-07-05T01:57:15.151Z,55.4
2018-07-05T01:58:05.131Z,55.5
2018-07-05T01:58:54.876Z,55.4
2018-07-05T01:59:44.941Z,55.4
2018-07-05T02:00:35.041Z,55.4
2018-07-05T02:01:25.090Z,55.4
2018-07-05T02:02:14.859Z,55.4
2018-07-05T02:03:04.929Z,55.4
2018-07-05T02:03:55.249Z,55.4
2018-07-05T02:04:45.582Z,55.4
2018-07-05T02:05:35.100Z,55.4
2018-07-05T02:06:25.451Z,55.4
2018-07-05T02:07:15.785Z,55.4
2018-07-05T02:08:05.622Z,55.4
2018-07-05T02:08:55.932Z,55.4
2018-07-05T02:09:46.083Z,55.4
2018-07-05T02:10:35.893Z,55.4
2018-07-05T02:11:26.292Z,55.4
2018-07-05T02:12:16.289Z,55.3
2018-07-05T02:13:05.767Z,55.3
2018-07-05T02:13:56.393Z,55.3
2018-07-05T02:14:45.900Z,55.3
2018-07-05T02:15:36.542Z,55.3
2018-07-05T02:16:26.553Z,55.3
2018-07-05T02:17:15.782Z,55.3
2018-07-05T02:18:06.729Z,55.3
2018-07-05T02:18:56.727Z,55.3
2018-07-05T02:19:46.819Z,55.3
2018-07-05T02:20:36.851Z,55.3
2018-07-05T02:21:26.927Z,55.3
2018-07-05T02:22:16.431Z,55.3
2018-07-05T02:23:07.018Z,55.3
2018-07-05T02:23:56.817Z,55.3
2018-07-05T02:24:47.128Z,55.3
2018-07-05T02:25:37.221Z,55.3
2018-07-05T02:26:26.714Z,55.3
2018-07-05T02:27:17.426Z,55.3
2018-07-05T02:28:07.156Z,55.3
2018-07-05T02:28:57.465Z,55.3
2018-07-05T02:29:47.249Z,55.3
2018-07-05T02:30:37.616Z,55.2
2018-07-05T02:31:27.438Z,55.2
2018-07-05T02:32:17.756Z,55.2
2018-07-05T02:33:07.543Z,55.2
2018-07-05T02:33:57.618Z,55.2
2018-07-05T02:34:47.989Z,55.2
2018-07-05T02:35:37.749Z,55.2
2018-07-05T02:36:28.100Z,55.2
2018-07-05T02:37:18.160Z,55.2
2018-07-05T02:38:08.159Z,55.2
2018-07-05T02:38:57.988Z,55.1
2018-07-05T02:39:48.335Z,55.1
2018-07-05T02:40:38.140Z,55.1
2018-07-05T02:41:28.471Z,55.1
2018-07-05T02:42:18.570Z,55.1
2018-07-05T02:43:08.116Z,55.1
2018-07-05T02:43:58.140Z,55.1
2018-07-05T02:44:48.455Z,55.1
2018-07-05T02:45:38.225Z,55.1
2018-07-05T02:46:28.875Z,55.1
2018-07-05T02:47:18.978Z,55.1
2018-07-05T02:48:08.725Z,55.1
2018-07-05T02:48:57.946Z,55.1
2018-07-05T02:49:49.088Z,55.1
2018-07-05T02:50:38.876Z,55.1
2018-07-05T02:51:29.248Z,55.1
2018-07-05T02:52:19.345Z,55.1
2018-07-05T02:53:09.373Z,55.1
2018-07-05T02:53:59.493Z,55.1
2018-07-05T02:54:49.502Z,55.1
2018-07-05T02:55:39.560Z,55.1
2018-07-05T02:56:29.342Z,55
2018-07-05T02:57:19.425Z,55.1
2018-07-05T02:58:09.745Z,55
2018-07-05T02:58:59.836Z,55
2018-07-05T02:59:49.330Z,55
2018-07-05T03:00:39.698Z,55
2018-07-05T03:01:29.490Z,55
2018-07-05T03:02:19.599Z,55
2018-07-05T03:03:09.904Z,55
2018-07-05T03:03:59.964Z,54.9
2018-07-05T03:04:50.061Z,54.9
2018-07-05T03:05:40.372Z,54.9
2018-07-05T03:06:30.152Z,54.9
2018-07-05T03:07:19.639Z,54.9
2018-07-05T03:08:10.282Z,54.9
2018-07-05T03:09:00.044Z,54.9
2018-07-05T03:09:50.433Z,54.9
2018-07-05T03:10:40.485Z,54.9
2018-07-05T03:11:30.842Z,54.9
2018-07-05T03:12:20.859Z,54.9
2018-07-05T03:13:10.966Z,54.9
2018-07-05T03:14:00.710Z,54.9
2018-07-05T03:14:50.794Z,54.9
2018-07-05T03:15:41.142Z,54.9
2018-07-05T03:16:31.213Z,54.9
2018-07-05T03:17:21.257Z,54.9
2018-07-05T03:18:11.169Z,54.9
2018-07-05T03:19:01.484Z,54.9
2018-07-05T03:19:51.475Z,54.9
2018-07-05T03:20:40.982Z,54.9
2018-07-05T03:21:31.314Z,54.8
2018-07-05T03:22:21.663Z,54.9
2018-07-05T03:23:11.515Z,54.8
2018-07-05T03:24:01.241Z,54.8
2018-07-05T03:24:51.933Z,54.8
2018-07-05T03:25:42.023Z,54.8
2018-07-05T03:26:31.398Z,54.8
2018-07-05T03:27:21.775Z,54.8
2018-07-05T03:28:12.093Z,54.8
2018-07-05T03:29:02.175Z,54.8
2018-07-05T03:29:52.213Z,54.8
2018-07-05T03:30:42.309Z,54.8
2018-07-05T03:31:32.082Z,54.8
2018-07-05T03:32:22.415Z,54.8
2018-07-05T03:33:12.492Z,54.8
2018-07-05T03:34:02.268Z,54.8
2018-07-05T03:34:52.095Z,54.8
2018-07-05T03:35:42.438Z,54.8
2018-07-05T03:36:32.750Z,54.8
2018-07-05T03:37:21.960Z,54.8
2018-07-05T03:38:12.596Z,54.8
2018-07-05T03:39:02.928Z,54.7
2018-07-05T03:39:52.719Z,54.8
2018-07-05T03:40:42.802Z,54.7
2018-07-05T03:41:32.627Z,54.7
2018-07-05T03:42:22.917Z,54.7
2018-07-05T03:43:12.973Z,54.7
2018-07-05T03:44:03.338Z,54.7
2018-07-05T03:44:53.415Z,54.7
2018-07-05T03:45:42.914Z,54.6
2018-07-05T03:46:33.230Z,54.7
2018-07-05T03:47:23.012Z,54.6
2018-07-05T03:48:13.071Z,54.6
2018-07-05T03:49:03.709Z,54.6
2018-07-05T03:49:53.776Z,54.6
2018-07-05T03:50:43.867Z,54.6
2018-07-05T03:51:33.338Z,54.6
2018-07-05T03:52:23.973Z,54.6
2018-07-05T03:53:14.004Z,54.6
2018-07-05T03:54:04.104Z,54.6
2018-07-05T03:54:53.845Z,54.6
2018-07-05T03:55:43.917Z,54.6
2018-07-05T03:56:33.990Z,54.6
2018-07-05T03:57:24.318Z,54.6
2018-07-05T03:58:14.387Z,54.6
2018-07-05T03:59:04.505Z,54.6
2018-07-05T03:59:54.529Z,54.6
2018-07-05T04:00:44.576Z,54.6
2018-07-05T04:01:34.370Z,54.6
2018-07-05T04:02:24.787Z,54.6
2018-07-05T04:03:14.772Z,54.6
2018-07-05T04:04:04.843Z,54.5
2018-07-05T04:04:54.654Z,54.5
2018-07-05T04:05:45.037Z,54.5
2018-07-05T04:06:35.054Z,54.5
2018-07-05T04:07:25.174Z,54.5
2018-07-05T04:08:15.083Z,54.5
2018-07-05T04:09:05.231Z,54.5
2018-07-05T04:09:55.315Z,54.5
2018-07-05T04:10:45.419Z,54.5
2018-07-05T04:11:34.619Z,54.5
2018-07-05T04:12:25.309Z,54.5
2018-07-05T04:13:15.329Z,54.5
2018-07-05T04:14:04.851Z,54.4
2018-07-05T04:14:54.964Z,54.4
2018-07-05T04:15:44.547Z,54.4
2018-07-05T04:16:35.109Z,54.4
2018-07-05T04:17:25.126Z,54.4
2018-07-05T04:18:14.760Z,54.4
2018-07-05T04:19:04.804Z,54.4
2018-07-05T04:19:54.709Z,54.4
2018-07-05T04:20:45.206Z,54.4
2018-07-05T04:21:34.923Z,54.4
2018-07-05T04:22:25.108Z,54.4
2018-07-05T04:23:15.368Z,54.4
2018-07-05T04:24:06.093Z,54.4
2018-07-05T04:24:55.486Z,54.4
2018-07-05T04:25:45.778Z,54.4
2018-07-05T04:26:35.841Z,54.4
2018-07-05T04:27:24.729Z,54.3
2018-07-05T04:28:15.647Z,54.3
2018-07-05T04:29:04.921Z,54.3
2018-07-05T04:29:55.376Z,54.3
2018-07-05T04:30:45.825Z,54.3
2018-07-05T04:31:35.874Z,54.3
2018-07-05T04:32:26.247Z,54.3
2018-07-05T04:33:16.653Z,54.3
2018-07-05T04:34:06.217Z,54.3
2018-07-05T04:34:56.463Z,54.3
2018-07-05T04:35:46.670Z,54.3
2018-07-05T04:36:36.357Z,54.3
2018-07-05T04:37:26.356Z,54.3
2018-07-05T04:38:16.290Z,54.3
2018-07-05T04:39:06.801Z,54.3
2018-07-05T04:39:56.162Z,54.3
2018-07-05T04:40:46.407Z,54.3
2018-07-05T04:41:36.270Z,54.3
2018-07-05T04:42:27.076Z,54.3
2018-07-05T04:43:16.720Z,54.3
2018-07-05T04:44:06.637Z,54.2
2018-07-05T04:44:57.022Z,54.2
2018-07-05T04:45:47.160Z,54.2
2018-07-05T04:46:37.627Z,54.2
2018-07-05T04:47:27.196Z,54.2
2018-07-05T04:48:17.322Z,54.2
2018-07-05T04:49:07.083Z,54.2
2018-07-05T04:49:57.622Z,54.2
2018-07-05T04:50:47.979Z,54.2
2018-07-05T04:51:37.311Z,54.1
2018-07-05T04:52:27.523Z,54.1
2018-07-05T04:53:18.504Z,54.1
2018-07-05T04:54:07.722Z,54.1
2018-07-05T04:54:58.091Z,54.1
2018-07-05T04:55:47.743Z,54.1
2018-07-05T04:56:38.570Z,54.1
2018-07-05T04:57:27.991Z,54.1
2018-07-05T04:58:18.151Z,54.1
2018-07-05T04:59:08.121Z,54.1
2018-07-05T04:59:58.400Z,54.1
2018-07-05T05:00:48.645Z,54.1
2018-07-05T05:01:38.396Z,54.1
2018-07-05T05:02:29.656Z,54.1
2018-07-05T05:03:19.473Z,54.1
2018-07-05T05:04:09.520Z,54.1
2018-07-05T05:04:58.851Z,54.1
2018-07-05T05:05:49.646Z,54.1
2018-07-05T05:06:39.137Z,54
2018-07-05T05:07:29.799Z,54.1
2018-07-05T05:08:19.831Z,54
2018-07-05T05:09:09.643Z,54
2018-07-05T05:09:59.125Z,54
2018-07-05T05:10:49.749Z,54
2018-07-05T05:11:39.592Z,54
2018-07-05T05:12:29.666Z,54
2018-07-05T05:13:19.963Z,54
2018-07-05T05:14:10.018Z,54
2018-07-05T05:15:00.838Z,53.9
2018-07-05T05:15:49.653Z,54
2018-07-05T05:16:40.509Z,53.9
2018-07-05T05:17:30.564Z,53.9
2018-07-05T05:18:20.319Z,53.9
2018-07-05T05:19:10.696Z,53.9
2018-07-05T05:20:00.232Z,53.9
2018-07-05T05:20:50.515Z,53.9
2018-07-05T05:21:40.379Z,53.9
2018-07-05T05:22:30.187Z,53.9
2018-07-05T05:23:19.995Z,53.9
2018-07-05T05:24:10.636Z,53.9
2018-07-05T05:25:00.396Z,53.9
2018-07-05T05:25:50.959Z,53.9
2018-07-05T05:26:41.005Z,53.9
2018-07-05T05:27:31.090Z,53.9
2018-07-05T05:28:20.838Z,53.9
2018-07-05T05:29:11.511Z,53.9
2018-07-05T05:30:01.780Z,53.9
2018-07-05T05:30:51.069Z,53.9
2018-07-05T05:31:41.367Z,53.9
2018-07-05T05:32:31.708Z,53.8
2018-07-05T05:33:21.232Z,53.8
2018-07-05T05:34:11.845Z,53.8
2018-07-05T05:35:01.358Z,53.8
2018-07-05T05:35:51.707Z,53.8
2018-07-05T05:36:42.054Z,53.8
2018-07-05T05:37:31.825Z,53.8
2018-07-05T05:38:21.425Z,53.8
2018-07-05T05:39:11.513Z,53.8
2018-07-05T05:40:02.036Z,53.8
2018-07-05T05:40:51.616Z,53.8
2018-07-05T05:41:41.662Z,53.8
2018-07-05T05:42:32.234Z,53.8
2018-07-05T05:43:22.620Z,53.8
2018-07-05T05:44:12.205Z,53.8
2018-07-05T05:45:02.189Z,53.8
2018-07-05T05:45:52.491Z,53.8
2018-07-05T05:46:42.540Z,53.8
2018-07-05T05:47:32.584Z,53.8
2018-07-05T05:48:22.976Z,53.8
2018-07-05T05:49:12.981Z,53.7
2018-07-05T05:50:02.780Z,53.7
2018-07-05T05:50:53.137Z,53.7
2018-07-05T05:51:42.650Z,53.7
2018-07-05T05:52:33.260Z,53.7
2018-07-05T05:53:23.327Z,53.7
2018-07-05T05:54:13.108Z,53.6
2018-07-05T05:55:03.388Z,53.6
2018-07-05T05:55:53.529Z,53.7
2018-07-05T05:56:43.571Z,53.6
2018-07-05T05:57:33.100Z,53.6
2018-07-05T05:58:23.701Z,53.6
2018-07-05T05:59:13.472Z,53.6
2018-07-05T06:00:03.276Z,53.6
2018-07-05T06:00:53.655Z,53.6
2018-07-05T06:01:43.760Z,53.6
2018-07-05T06:02:34.024Z,53.6
2018-07-05T06:03:22.993Z,53.6
2018-07-05T06:04:13.924Z,53.6
2018-07-05T06:05:04.239Z,53.6
2018-07-05T06:05:53.732Z,53.6
2018-07-05T06:06:44.385Z,53.6
2018-07-05T06:07:34.143Z,53.6
2018-07-05T06:08:24.229Z,53.6
2018-07-05T06:09:14.004Z,53.6
2018-07-05T06:10:04.843Z,53.6
2018-07-05T06:10:54.130Z,53.5
2018-07-05T06:11:44.470Z,53.5
2018-07-05T06:12:34.800Z,53.5
2018-07-05T06:13:24.577Z,53.5
2018-07-05T06:14:14.400Z,53.5
2018-07-05T06:15:04.733Z,53.5
2018-07-05T06:15:54.813Z,53.5
2018-07-05T06:16:44.865Z,53.4
2018-07-05T06:17:34.933Z,53.4
2018-07-05T06:18:24.439Z,53.4
2018-07-05T06:19:15.436Z,53.4
2018-07-05T06:20:05.378Z,53.4
2018-07-05T06:20:55.145Z,53.4
2018-07-05T06:21:45.531Z,53.4
2018-07-05T06:22:35.563Z,53.4
2018-07-05T06:23:25.344Z,53.4
2018-07-05T06:24:15.739Z,53.4
2018-07-05T06:25:05.785Z,53.4
2018-07-05T06:25:55.812Z,53.4
2018-07-05T06:26:45.594Z,53.4
2018-07-05T06:27:35.947Z,53.4
2018-07-05T06:28:26.027Z,53.4
2018-07-05T06:29:16.084Z,53.4
2018-07-05T06:30:05.891Z,53.4
2018-07-05T06:30:55.667Z,53.3
2018-07-05T06:31:46.313Z,53.3
2018-07-05T06:32:36.382Z,53.3
2018-07-05T06:33:26.144Z,53.3
2018-07-05T06:34:16.695Z,53.3
2018-07-05T06:35:06.657Z,53.3
2018-07-05T06:35:56.647Z,53.3
2018-07-05T06:36:46.438Z,53.3
2018-07-05T06:37:36.542Z,53.3
2018-07-05T06:38:26.550Z,53.3
2018-07-05T06:39:16.437Z,53.3
2018-07-05T06:40:06.717Z,53.3
2018-07-05T06:40:56.501Z,53.3
2018-07-05T06:41:47.057Z,53.3
2018-07-05T06:42:37.181Z,53.3
2018-07-05T06:43:27.003Z,53.3
2018-07-05T06:44:17.047Z,53.3
2018-07-05T06:45:07.115Z,53.3
2018-07-05T06:45:56.877Z,53.3
2018-07-05T06:46:47.008Z,53.2
2018-07-05T06:47:37.518Z,53.2
2018-07-05T06:48:27.354Z,53.2
2018-07-05T06:49:17.207Z,53.2
2018-07-05T06:50:07.196Z,53.2
2018-07-05T06:50:57.259Z,53.2
2018-07-05T06:51:47.593Z,53.1
2018-07-05T06:52:37.389Z,53.1
2018-07-05T06:53:27.552Z,53.1
2018-07-05T06:54:17.048Z,53.1
2018-07-05T06:55:07.849Z,53.1
2018-07-05T06:55:57.898Z,53.1
2018-07-05T06:56:48.504Z,53.1
2018-07-05T06:57:38.410Z,53.1
2018-07-05T06:58:28.380Z,53.1
2018-07-05T06:59:18.927Z,53.1
2018-07-05T07:00:08.259Z,53.1
2018-07-05T07:00:57.803Z,53.1
2018-07-05T07:01:48.631Z,53.1
2018-07-05T07:02:38.438Z,53.1
2018-07-05T07:03:28.186Z,53.1
2018-07-05T07:04:18.857Z,53.1
2018-07-05T07:05:08.316Z,53.1
2018-07-05T07:05:58.672Z,53.1
2018-07-05T07:06:49.010Z,53.1
2018-07-05T07:07:38.773Z,53.1
2018-07-05T07:08:28.840Z,53.1
2018-07-05T07:09:19.197Z,53
2018-07-05T07:10:09.042Z,53.1
2018-07-05T07:10:59.064Z,53
2018-07-05T07:11:49.373Z,53
2018-07-05T07:12:38.939Z,53
2018-07-05T07:13:29.238Z,53
2018-07-05T07:14:18.811Z,53
2018-07-05T07:15:09.688Z,53
2018-07-05T07:15:59.698Z,52.9
2018-07-05T07:16:49.806Z,52.9
2018-07-05T07:17:39.569Z,52.9
2018-07-05T07:18:29.374Z,52.9
2018-07-05T07:19:20.019Z,52.9
2018-07-05T07:20:09.841Z,52.9
2018-07-05T07:20:59.848Z,52.9
2018-07-05T07:21:50.193Z,52.9
2018-07-05T07:22:39.972Z,52.9
2018-07-05T07:23:30.323Z,52.9
2018-07-05T07:24:20.144Z,52.9
2018-07-05T07:25:10.442Z,52.9
2018-07-05T07:26:00.242Z,52.9
2018-07-05T07:26:50.603Z,52.9
2018-07-05T07:27:39.583Z,52.9
2018-07-05T07:28:30.487Z,52.9
2018-07-05T07:29:20.799Z,52.9
2018-07-05T07:30:10.305Z,52.8
2018-07-05T07:31:00.066Z,52.8
2018-07-05T07:31:51.971Z,52.8
2018-07-05T07:32:41.091Z,52.8
2018-07-05T07:33:30.617Z,52.8
2018-07-05T07:34:20.604Z,52.8
2018-07-05T07:35:11.058Z,52.8
2018-07-05T07:36:00.741Z,52.8
2018-07-05T07:36:51.121Z,52.8
2018-07-05T07:37:41.798Z,52.8
2018-07-05T07:38:31.516Z,52.8
2018-07-05T07:39:20.999Z,52.8
2018-07-05T07:40:11.137Z,52.8
2018-07-05T07:41:01.442Z,52.8
2018-07-05T07:41:51.741Z,52.8
2018-07-05T07:42:41.563Z,52.8
2018-07-05T07:43:31.383Z,52.8
2018-07-05T07:44:21.125Z,52.7
2018-07-05T07:45:11.485Z,52.7
2018-07-05T07:46:02.137Z,52.7
2018-07-05T07:46:51.473Z,52.7
2018-07-05T07:47:41.685Z,52.7
2018-07-05T07:48:32.289Z,52.7
2018-07-05T07:49:21.790Z,52.7
2018-07-05T07:50:12.425Z,52.7
2018-07-05T07:51:02.233Z,52.7
2018-07-05T07:51:52.555Z,52.7
2018-07-05T07:52:42.346Z,52.6
2018-07-05T07:53:32.682Z,52.6
2018-07-05T07:54:22.744Z,52.6
2018-07-05T07:55:12.281Z,52.6
2018-07-05T07:56:02.882Z,52.6
2018-07-05T07:56:52.947Z,52.6
2018-07-05T07:57:42.993Z,52.6
2018-07-05T07:58:32.527Z,52.6
2018-07-05T07:59:22.940Z,52.6
2018-07-05T08:00:12.108Z,52.6
2018-07-05T08:01:02.721Z,52.6
2018-07-05T08:01:53.051Z,52.6
2018-07-05T08:02:43.177Z,52.6
2018-07-05T08:03:33.457Z,52.6
2018-07-05T08:04:23.507Z,52.6
2018-07-05T08:05:13.645Z,52.6
2018-07-05T08:06:03.099Z,52.6
2018-07-05T08:06:53.452Z,52.6
2018-07-05T08:07:43.779Z,52.6
2018-07-05T08:08:33.860Z,52.5
2018-07-05T08:09:23.931Z,52.5
2018-07-05T08:10:13.738Z,52.5
2018-07-05T08:11:04.070Z,52.5
2018-07-05T08:11:53.577Z,52.4
2018-07-05T08:12:44.208Z,52.4
2018-07-05T08:13:34.263Z,52.4
2018-07-05T08:14:23.788Z,52.4
2018-07-05T08:16:03.984Z,52.4
2018-07-05T08:16:54.268Z,52.4
2018-07-05T08:17:44.579Z,52.4
2018-07-05T08:18:34.656Z,52.5
2018-07-05T08:19:24.724Z,52.5
2018-07-05T08:20:14.773Z,52.6
2018-07-05T08:21:04.581Z,52.6
2018-07-05T08:21:54.646Z,52.6
2018-07-05T08:22:44.698Z,52.7
2018-07-05T08:23:34.487Z,52.8
2018-07-05T08:24:25.155Z,52.8
2018-07-05T08:25:14.903Z,52.8
2018-07-05T08:26:05.252Z,52.9
2018-07-05T08:26:55.061Z,52.9
2018-07-05T08:27:45.133Z,52.9
2018-07-05T08:28:34.308Z,52.9
2018-07-05T08:29:25.009Z,53
2018-07-05T08:30:15.066Z,53.1
2018-07-05T08:31:05.640Z,53.1
2018-07-05T08:31:55.419Z,53.1
2018-07-05T08:32:44.727Z,53.2
2018-07-05T08:33:35.559Z,53.3
2018-07-05T08:34:25.895Z,53.3
2018-07-05T08:35:15.737Z,53.3
2018-07-05T08:36:05.547Z,53.4
2018-07-05T08:36:55.810Z,53.4
2018-07-05T08:37:46.444Z,53.4
2018-07-05T08:38:35.935Z,53.5
2018-07-05T08:39:26.301Z,53.6
2018-07-05T08:40:15.840Z,53.6
2018-07-05T08:41:06.429Z,53.6
2018-07-05T08:41:56.228Z,53.7
2018-07-05T08:42:46.316Z,53.7
2018-07-05T08:43:36.609Z,53.8
2018-07-05T08:44:26.151Z,53.8
2018-07-05T08:45:16.203Z,53.8
2018-07-05T08:46:06.321Z,53.9
2018-07-05T08:46:56.639Z,53.9
2018-07-05T08:47:46.950Z,54
2018-07-05T08:48:36.483Z,54
2018-07-05T08:49:27.076Z,54.1
2018-07-05T08:50:16.592Z,54.1
2018-07-05T08:51:06.894Z,54.2
2018-07-05T08:51:56.733Z,54.3
2018-07-05T08:52:47.080Z,54.3
2018-07-05T08:53:36.862Z,54.3
2018-07-05T08:54:27.204Z,54.4
2018-07-05T08:55:17.054Z,54.4
2018-07-05T08:56:07.347Z,54.5
2018-07-05T08:56:57.668Z,54.5
2018-07-05T08:57:47.204Z,54.6
2018-07-05T08:58:37.627Z,54.6
2018-07-05T08:59:27.895Z,54.7
2018-07-05T09:00:17.941Z,54.8
2018-07-05T09:01:07.186Z,54.8
2018-07-05T09:01:58.087Z,54.9
2018-07-05T09:02:48.179Z,54.9
2018-07-05T09:03:37.986Z,55
2018-07-05T09:04:28.010Z,55.1
2018-07-05T09:05:18.843Z,55.1
2018-07-05T09:06:07.861Z,55.1
2018-07-05T09:06:57.903Z,55.2
2018-07-05T09:07:47.958Z,55.3
2018-07-05T09:08:37.768Z,55.3
2018-07-05T09:09:28.454Z,55.3
2018-07-05T09:10:18.624Z,55.4
2018-07-05T09:11:08.528Z,55.4
2018-07-05T09:11:58.776Z,55.4
2018-07-05T09:12:48.911Z,55.5
2018-07-05T09:13:38.735Z,55.6
2018-07-05T09:14:29.044Z,55.6
2018-07-05T09:15:18.889Z,55.7
2018-07-05T09:16:09.218Z,55.8
2018-07-05T09:16:58.782Z,55.8
2018-07-05T09:17:52.411Z,55.8
2018-07-05T09:18:39.405Z,55.9
2018-07-05T09:19:28.922Z,55.9
2018-07-05T09:20:18.985Z,56
2018-07-05T09:21:09.046Z,56.1
2018-07-05T09:21:59.647Z,56.1
2018-07-05T09:22:49.788Z,56.2
2018-07-05T09:23:40.206Z,56.3
2018-07-05T09:24:29.294Z,56.3
2018-07-05T09:25:19.712Z,56.3
2018-07-05T09:26:09.700Z,56.4
2018-07-05T09:26:59.764Z,56.4
2018-07-05T09:27:49.593Z,56.4
2018-07-05T09:28:39.985Z,56.5
2018-07-05T09:29:29.948Z,56.6
2018-07-05T09:30:20.330Z,56.6
2018-07-05T09:31:10.822Z,56.6
2018-07-05T09:32:00.179Z,56.7
2018-07-05T09:32:50.503Z,56.8
2018-07-05T09:33:39.598Z,56.8
2018-07-05T09:34:29.885Z,56.9
2018-07-05T09:35:20.504Z,56.9
2018-07-05T09:36:10.491Z,57
2018-07-05T09:37:00.873Z,57
2018-07-05T09:37:50.098Z,57.1
2018-07-05T09:38:40.443Z,57.1
2018-07-05T09:39:30.761Z,57.3
2018-07-05T09:40:20.836Z,57.3
2018-07-05T09:41:11.169Z,57.3
2018-07-05T09:42:01.255Z,57.4
2018-07-05T09:42:51.030Z,57.4
2018-07-05T09:43:41.358Z,57.5
2018-07-05T09:44:30.854Z,57.5
2018-07-05T09:45:21.215Z,57.6
2018-07-05T09:46:11.019Z,57.6
2018-07-05T09:47:02.288Z,57.7
2018-07-05T09:47:51.691Z,57.7
2018-07-05T09:49:31.825Z,57.8
2018-07-05T09:50:21.135Z,57.9
2018-07-05T09:51:11.945Z,57.9
2018-07-05T09:52:01.738Z,57.9
2018-07-05T09:52:53.071Z,58
2018-07-05T09:53:41.319Z,58.1
2018-07-05T09:54:32.193Z,58.1
2018-07-05T09:55:21.728Z,58.2
2018-07-05T09:56:12.325Z,58.3
2018-07-05T09:57:02.427Z,58.3
2018-07-05T09:57:52.262Z,58.3
2018-07-05T09:58:42.260Z,58.4
2018-07-05T09:59:32.327Z,58.4
2018-07-05T10:00:22.669Z,58.5
2018-07-05T10:01:12.767Z,58.5
2018-07-05T10:02:52.626Z,58.6
2018-07-05T10:03:44.156Z,58.7
2018-07-05T10:04:33.011Z,58.8
2018-07-05T10:05:22.809Z,58.8
2018-07-05T10:06:12.609Z,58.8
2018-07-05T10:07:03.209Z,58.9
2018-07-05T10:07:52.749Z,58.9
2018-07-05T10:08:43.105Z,59
2018-07-05T10:09:33.417Z,59.1
2018-07-05T10:10:22.911Z,59.1
2018-07-05T10:11:12.998Z,59.1
2018-07-05T10:12:03.351Z,59.3
2018-07-05T10:12:53.383Z,59.3
2018-07-05T10:13:45.889Z,59.3
2018-07-05T10:14:33.824Z,59.3
2018-07-05T10:15:23.604Z,59.4
2018-07-05T10:16:13.936Z,59.4
2018-07-05T10:17:04.078Z,59.5
2018-07-05T10:17:54.090Z,59.6
2018-07-05T10:18:44.125Z,59.6
2018-07-05T10:19:34.454Z,59.7
2018-07-05T10:20:24.259Z,59.8
2018-07-05T10:21:14.331Z,59.8
2018-07-05T10:22:03.557Z,59.8
2018-07-05T10:22:54.514Z,59.9
2018-07-05T10:23:44.276Z,59.9
2018-07-05T10:24:34.021Z,60
2018-07-05T10:25:24.677Z,60.1
2018-07-05T10:26:13.865Z,60.1
2018-07-05T10:27:05.279Z,60.1
2018-07-05T10:27:54.579Z,60.2
2018-07-05T10:28:44.630Z,60.2
2018-07-05T10:29:35.009Z,60.3
2018-07-05T10:30:24.509Z,60.3
2018-07-05T10:31:14.821Z,60.4
2018-07-05T10:32:04.665Z,60.4
2018-07-05T10:32:55.018Z,60.5
2018-07-05T10:33:45.026Z,60.6
2018-07-05T10:34:35.174Z,60.6
2018-07-05T10:35:25.164Z,60.7
2018-07-05T10:36:15.294Z,60.7
2018-07-05T10:37:05.598Z,60.8
2018-07-05T10:37:55.644Z,60.8
2018-07-05T10:38:45.479Z,60.9
2018-07-05T10:39:36.231Z,60.9
2018-07-05T10:40:25.852Z,60.9
2018-07-05T10:41:15.711Z,61
2018-07-05T10:42:05.432Z,61.1
2018-07-05T10:42:55.794Z,61.1
2018-07-05T10:43:45.834Z,61.1
2018-07-05T10:44:35.907Z,61.2
2018-07-05T10:45:25.995Z,61.2
2018-07-05T10:46:16.345Z,61.3
2018-07-05T10:47:06.107Z,61.3
2018-07-05T10:47:56.461Z,61.4
2018-07-05T10:48:46.240Z,61.4
2018-07-05T10:49:36.087Z,61.4
2018-07-05T10:50:26.379Z,61.5
2018-07-05T10:51:16.741Z,61.6
2018-07-05T10:52:06.241Z,61.6
2018-07-05T10:52:56.284Z,61.6
2018-07-05T10:53:46.629Z,61.7
2018-07-05T10:54:36.985Z,61.8
2018-07-05T10:55:26.883Z,61.8
2018-07-05T10:56:16.833Z,61.8
2018-07-05T10:57:06.887Z,61.9
2018-07-05T10:57:56.946Z,61.9
2018-07-05T10:58:47.292Z,62
2018-07-05T10:59:37.346Z,62
2018-07-05T11:00:26.871Z,62.1
2018-07-05T11:01:17.492Z,62.1
2018-07-05T11:02:07.000Z,62.1
2018-07-05T11:02:57.659Z,62.2
2018-07-05T11:03:47.696Z,62.3
2018-07-05T11:04:37.221Z,62.3
2018-07-05T11:05:27.273Z,62.3
2018-07-05T11:06:17.901Z,62.4
2018-07-05T11:07:07.765Z,62.4
2018-07-05T11:07:57.775Z,62.5
2018-07-05T11:08:47.801Z,62.6
2018-07-05T11:09:37.594Z,62.6
2018-07-05T11:10:28.273Z,62.6
2018-07-05T11:11:17.465Z,62.7